Time;durP1;ratioP1;P1;durP2;ratioP2;P2;SDS_P1;SDS_P2;PMS_P1;PMS_P2;Temp;Humidity;BMP_temperature;BMP_pressure;BME280_temperature;BME280_humidity;BME280_pressure;Samples;Min_cycle;Max_cycle;Signal;HPM_P1;HPM_P2
2022/06/19 00:00:44;;;;;;;9.45;7.53;;;;;;;15.63;73.11;99789.38;4967416;28;20503;-92
2022/06/19 00:03:12;;;;;;;10.88;7.80;;;;;;;15.66;72.99;99802.34;4983627;28;20049;-92
2022/06/19 00:05:39;;;;;;;10.82;8.18;;;;;;;15.55;73.40;99793.53;4982547;28;20180;-93
2022/06/19 00:08:05;;;;;;;15.65;8.23;;;;;;;15.66;73.54;99810.50;4999413;28;20058;-93
2022/06/19 00:10:31;;;;;;;12.70;8.30;;;;;;;15.50;73.99;99804.44;4967392;28;20084;-93
2022/06/19 00:12:58;;;;;;;11.25;7.38;;;;;;;15.60;73.54;99819.78;4967453;28;20029;-92
2022/06/19 00:15:23;;;;;;;10.70;7.30;;;;;;;15.48;73.23;99802.03;4999869;28;20033;-93
2022/06/19 00:17:49;;;;;;;11.10;7.32;;;;;;;15.54;73.86;99808.19;4966423;28;20025;-93
2022/06/19 00:20:15;;;;;;;11.20;7.75;;;;;;;15.48;74.05;99821.03;4981824;28;20104;-93
2022/06/19 00:22:41;;;;;;;11.55;7.78;;;;;;;15.36;74.10;99813.28;4998693;28;20049;-92
2022/06/19 00:25:08;;;;;;;14.90;7.80;;;;;;;15.42;74.43;99819.47;4966773;28;20495;-92
2022/06/19 00:27:37;;;;;;;12.40;8.38;;;;;;;15.34;74.41;99806.53;4966586;28;20496;-93
2022/06/19 00:30:08;;;;;;;14.60;8.05;;;;;;;15.25;74.55;99798.25;4966413;28;20026;-93
2022/06/19 00:32:33;;;;;;;10.85;7.53;;;;;;;15.28;74.57;99808.50;4998908;28;20034;-92
2022/06/19 00:35:00;;;;;;;10.25;7.93;;;;;;;15.22;74.22;99798.00;4982491;28;20030;-93
2022/06/19 00:37:26;;;;;;;10.90;7.18;;;;;;;15.23;74.43;99795.00;4998693;28;20107;-93
2022/06/19 00:39:51;;;;;;;10.48;7.60;;;;;;;15.15;74.45;99785.59;4965857;28;20033;-92
2022/06/19 00:42:17;;;;;;;11.02;7.60;;;;;;;15.23;74.34;99800.44;4981970;28;20108;-93
2022/06/19 00:44:43;;;;;;;14.15;7.63;;;;;;;15.25;74.55;99802.84;4965976;28;20025;-92
2022/06/19 00:47:23;;;;;;;13.02;7.53;;;;;;;15.27;74.47;99809.63;4998612;28;20479;-91
2022/06/19 00:49:50;;;;;;;9.20;7.55;;;;;;;15.28;74.39;99802.28;4966729;28;20033;-93
2022/06/19 00:52:19;;;;;;;11.80;7.35;;;;;;;15.31;74.08;99802.47;4966254;28;20064;-93
2022/06/19 00:54:58;;;;;;;10.55;7.05;;;;;;;15.28;74.25;99808.50;4965979;28;20022;-92
2022/06/19 00:57:26;;;;;;;9.48;7.10;;;;;;;15.25;74.30;99800.13;4981949;28;20029;-92
2022/06/19 00:59:56;;;;;;;12.32;6.82;;;;;;;15.28;73.80;99810.41;4982140;28;20030;-93
2022/06/19 01:02:21;;;;;;;9.35;6.95;;;;;;;15.31;73.68;99821.47;4965396;28;20034;-92
2022/06/19 01:04:49;;;;;;;14.93;7.50;;;;;;;15.18;73.76;99803.19;4965236;28;20034;-92
2022/06/19 01:07:15;;;;;;;10.45;7.43;;;;;;;15.26;73.75;99810.69;4980316;28;20042;-92
2022/06/19 01:09:41;;;;;;;10.85;7.00;;;;;;;15.09;73.63;99794.09;4982018;28;20064;-92
2022/06/19 01:12:08;;;;;;;9.77;7.50;;;;;;;15.16;74.24;99819.75;4965890;28;20380;-92
2022/06/19 01:14:34;;;;;;;12.13;6.90;;;;;;;15.16;73.83;99806.19;4965727;28;20416;-93
2022/06/19 01:17:01;;;;;;;9.88;7.30;;;;;;;15.00;73.83;99791.16;4965315;28;20029;-92
2022/06/19 01:19:28;;;;;;;11.00;8.05;;;;;;;15.07;74.22;99821.47;4965525;28;20087;-93
2022/06/19 01:22:09;;;;;;;12.63;7.15;;;;;;;14.95;74.51;99812.94;4981388;28;20036;-94
2022/06/19 01:25:03;;;;;;;16.48;8.10;;;;;;;15.05;74.37;99826.38;4966378;28;20061;-93
2022/06/19 01:30:15;;;;;;;10.15;7.82;;;;;;;15.04;74.74;99830.19;5000747;28;20052;-93
2022/06/19 01:32:41;;;;;;;14.52;8.35;;;;;;;14.91;74.82;99812.69;4982068;28;20523;-92
2022/06/19 01:35:08;;;;;;;13.02;8.13;;;;;;;14.87;74.90;99805.41;4965653;28;20077;-93
2022/06/19 01:37:34;;;;;;;12.23;8.20;;;;;;;14.85;74.79;99802.19;4965951;28;20491;-93
2022/06/19 01:40:19;;;;;;;11.10;7.95;;;;;;;14.95;74.42;99818.34;4982173;28;20026;-93
2022/06/19 01:42:47;;;;;;;12.55;8.65;;;;;;;14.84;74.86;99806.00;4982993;28;20087;-93
2022/06/19 01:45:13;;;;;;;15.38;8.18;;;;;;;14.83;74.40;99813.31;4997517;28;20041;-92
2022/06/19 01:47:40;;;;;;;9.20;7.78;;;;;;;14.84;74.76;99822.28;4964626;28;20033;-91
2022/06/19 01:50:09;;;;;;;13.18;7.78;;;;;;;14.79;74.57;99822.31;4981264;28;20115;-94
2022/06/19 01:52:34;;;;;;;9.80;7.28;;;;;;;14.78;74.70;99823.41;4965347;28;20034;-92
2022/06/19 01:55:15;;;;;;;8.85;6.40;;;;;;;14.77;74.80;99828.00;4964661;28;20025;-92
2022/06/19 01:57:43;;;;;;;10.48;6.47;;;;;;;14.70;74.60;99820.19;4965015;28;20124;-92
2022/06/19 02:00:15;;;;;;;8.43;6.32;;;;;;;14.64;75.20;99823.25;4964761;28;20037;-92
2022/06/19 02:02:43;;;;;;;7.03;6.03;;;;;;;14.66;75.15;99830.00;4965928;28;20476;-92
2022/06/19 02:05:08;;;;;;;8.50;6.47;;;;;;;14.64;75.30;99821.34;4980678;28;20034;-93
2022/06/19 02:07:34;;;;;;;11.27;6.63;;;;;;;14.67;75.21;99823.50;4965484;28;20037;-93
2022/06/19 02:10:00;;;;;;;9.95;6.55;;;;;;;14.59;75.58;99815.16;4961329;28;20485;-93
2022/06/19 02:12:26;;;;;;;11.10;6.80;;;;;;;14.57;75.31;99809.19;4962229;28;20404;-92
2022/06/19 02:14:52;;;;;;;11.07;6.25;;;;;;;14.63;75.05;99833.28;4962132;28;20034;-92
2022/06/19 02:17:50;;;;;;;8.20;6.05;;;;;;;14.63;74.91;99833.28;4992623;28;20030;-92
2022/06/19 02:20:16;;;;;;;10.40;5.72;;;;;;;14.63;74.47;99830.56;4925368;29;20083;-92
2022/06/19 02:22:42;;;;;;;12.27;5.93;;;;;;;14.58;74.68;99841.44;4922039;29;20074;-92
2022/06/19 02:25:08;;;;;;;7.88;5.68;;;;;;;14.39;75.11;99840.50;4922154;29;20102;-92
2022/06/19 02:27:34;;;;;;;8.52;6.55;;;;;;;14.31;75.14;99825.63;4937854;28;20137;-92
2022/06/19 02:30:01;;;;;;;11.05;6.75;;;;;;;14.33;75.42;99837.00;4921820;29;20058;-93
2022/06/19 02:32:32;;;;;;;8.18;5.88;;;;;;;14.34;75.14;99831.31;4921959;29;20031;-92
2022/06/19 02:34:57;;;;;;;11.37;6.07;;;;;;;14.35;75.14;99830.19;4936965;29;20062;-92
2022/06/19 02:37:25;;;;;;;9.38;6.32;;;;;;;14.34;75.23;99836.72;4921825;29;20023;-94
2022/06/19 02:39:56;;;;;;;8.88;6.78;;;;;;;14.44;75.34;99846.66;4937603;29;20075;-92
2022/06/19 02:42:26;;;;;;;10.27;6.72;;;;;;;14.45;75.33;99848.28;4937634;29;20526;-93
2022/06/19 02:45:05;;;;;;;9.95;6.50;;;;;;;14.26;75.52;99831.09;4937288;29;20031;-93
2022/06/19 02:47:32;;;;;;;7.78;6.43;;;;;;;14.34;75.41;99844.06;4953817;29;20118;-92
2022/06/19 02:49:58;;;;;;;9.43;6.20;;;;;;;14.29;75.28;99836.75;4937936;29;20031;-92
2022/06/19 02:52:24;;;;;;;10.05;6.55;;;;;;;14.40;75.24;99850.22;4976445;28;20540;-93
2022/06/19 02:54:50;;;;;;;7.60;6.15;;;;;;;14.38;74.94;99845.09;4961245;28;20042;-93
2022/06/19 02:57:16;;;;;;;9.05;6.35;;;;;;;14.45;74.73;99844.78;4976857;28;20041;-92
2022/06/19 02:59:41;;;;;;;13.23;8.48;;;;;;;14.40;74.92;99842.94;4977354;28;20037;-93
2022/06/19 03:02:08;;;;;;;9.27;6.03;;;;;;;14.48;74.78;99857.75;4976817;28;20030;-94
2022/06/19 03:04:44;;;;;;;9.10;6.50;;;;;;;14.43;74.46;99846.97;4977148;28;20038;-92
2022/06/19 03:07:10;;;;;;;10.13;6.20;;;;;;;14.39;74.59;99846.72;4961722;28;20489;-92
2022/06/19 03:09:35;;;;;;;9.77;6.47;;;;;;;14.34;74.89;99846.75;4976878;28;20057;-92
2022/06/19 03:12:01;;;;;;;8.40;6.45;;;;;;;14.39;74.73;99844.00;4960695;28;20026;-92
2022/06/19 03:14:27;;;;;;;9.80;6.97;;;;;;;14.35;74.73;99835.63;4976990;28;20057;-92
2022/06/19 03:16:53;;;;;;;9.95;7.00;;;;;;;14.48;74.37;99844.19;4960702;28;20022;-92
2022/06/19 03:19:18;;;;;;;12.23;7.97;;;;;;;14.55;74.16;99847.41;4976826;28;20037;-92
2022/06/19 03:21:45;;;;;;;16.63;11.88;;;;;;;14.47;74.62;99845.31;4976746;28;20041;-93
2022/06/19 03:24:11;;;;;;;14.48;13.00;;;;;;;14.52;74.30;99832.50;4976191;28;20129;-92
2022/06/19 03:26:37;;;;;;;15.10;8.20;;;;;;;14.54;74.11;99841.16;4977049;28;20084;-92
2022/06/19 03:29:03;;;;;;;11.10;6.55;;;;;;;14.60;73.96;99843.88;4978496;28;20030;-92
2022/06/19 03:31:29;;;;;;;6.40;5.05;;;;;;;14.54;73.18;99840.38;4965186;28;20030;-92
2022/06/19 03:33:55;;;;;;;6.80;5.55;;;;;;;14.62;73.14;99855.25;4964215;28;20033;-92
2022/06/19 03:36:21;;;;;;;11.90;5.88;;;;;;;14.47;73.48;99834.47;4964623;28;20503;-92
2022/06/19 03:38:47;;;;;;;12.88;6.80;;;;;;;14.58;73.82;99857.69;4980831;28;20018;-92
2022/06/19 03:41:13;;;;;;;10.20;6.82;;;;;;;14.44;73.88;99849.38;4980930;28;20022;-92
2022/06/19 03:43:39;;;;;;;7.82;6.63;;;;;;;14.38;73.97;99831.56;4964529;28;20057;-92
2022/06/19 03:46:36;;;;;;;10.05;6.45;;;;;;;14.35;74.26;99832.91;4964952;28;20377;-92
2022/06/19 03:49:01;;;;;;;10.35;6.63;;;;;;;14.53;74.03;99849.59;4948453;28;20066;-92
2022/06/19 03:51:27;;;;;;;8.95;6.57;;;;;;;14.57;74.33;99861.53;4944657;28;20073;-92
2022/06/19 03:53:53;;;;;;;8.13;7.32;;;;;;;14.60;74.46;99860.94;4944294;28;20035;-92
2022/06/19 03:56:23;;;;;;;19.63;9.23;;;;;;;14.64;74.55;99867.41;4944044;28;20030;-92
2022/06/19 03:58:49;;;;;;;11.80;8.93;;;;;;;14.73;74.28;99860.31;4928402;28;20066;-92
2022/06/19 04:01:25;;;;;;;13.13;9.68;;;;;;;14.73;73.74;99859.47;4944238;28;20586;-92
2022/06/19 04:03:52;;;;;;;13.00;9.68;;;;;;;14.83;73.61;99862.09;4959814;28;20039;-92
2022/06/19 04:06:19;;;;;;;13.20;10.75;;;;;;;14.91;73.52;99868.81;4928703;28;20493;-93
2022/06/19 04:08:46;;;;;;;14.00;10.27;;;;;;;15.03;73.32;99866.53;4943161;28;20047;-91
2022/06/19 04:11:14;;;;;;;13.55;9.75;;;;;;;15.06;73.07;99862.44;4928509;28;20035;-91
2022/06/19 04:13:40;;;;;;;15.45;8.73;;;;;;;15.06;72.98;99860.53;4928704;28;20118;-92
2022/06/19 04:16:07;;;;;;;12.98;9.10;;;;;;;15.16;72.65;99865.84;4927927;28;20049;-92
2022/06/19 04:18:33;;;;;;;17.02;8.75;;;;;;;15.25;72.78;99866.06;4928096;28;20023;-91
2022/06/19 04:20:59;;;;;;;14.25;11.50;;;;;;;15.35;72.31;99863.22;4978428;28;20034;-92
2022/06/19 04:23:25;;;;;;;12.80;9.27;;;;;;;15.26;72.28;99848.69;4980178;28;20033;-92
2022/06/19 04:25:51;;;;;;;9.45;8.52;;;;;;;15.49;72.20;99879.63;4963725;28;20161;-92
2022/06/19 04:28:18;;;;;;;18.58;10.73;;;;;;;15.45;72.15;99854.16;4963481;28;20426;-92
2022/06/19 04:30:46;;;;;;;15.77;11.68;;;;;;;15.61;72.13;99875.72;4963486;28;20473;-91
2022/06/19 04:33:16;;;;;;;13.40;11.80;;;;;;;15.62;71.62;99858.31;4964029;28;20389;-91
2022/06/19 04:35:42;;;;;;;15.20;11.27;;;;;;;15.96;70.42;99880.72;4963988;28;20113;-92
2022/06/19 04:38:07;;;;;;;12.38;11.02;;;;;;;15.90;71.13;99860.16;4963352;28;20489;-92
2022/06/19 04:40:34;;;;;;;12.32;10.13;;;;;;;15.93;71.03;99848.69;4978412;28;20030;-91
2022/06/19 04:43:00;;;;;;;15.90;11.23;;;;;;;16.07;70.35;99853.44;4979748;28;20057;-91
2022/06/19 04:45:25;;;;;;;16.58;11.40;;;;;;;16.10;70.70;99860.97;4963265;28;20030;-91
2022/06/19 04:47:51;;;;;;;14.98;11.93;;;;;;;16.26;70.24;99861.56;4963240;28;20080;-91
2022/06/19 04:50:16;;;;;;;14.68;11.05;;;;;;;16.21;70.10;99846.16;4963384;28;20033;-92
2022/06/19 04:52:42;;;;;;;17.35;11.13;;;;;;;16.29;70.57;99858.25;4962781;28;20027;-92
2022/06/19 04:55:09;;;;;;;12.27;10.43;;;;;;;16.29;70.43;99845.50;4979185;28;20026;-92
2022/06/19 04:57:35;;;;;;;16.23;12.90;;;;;;;16.43;70.63;99861.03;4963350;28;20034;-92
2022/06/19 05:00:01;;;;;;;17.73;14.45;;;;;;;16.57;69.93;99868.16;4962804;28;20030;-91
2022/06/19 05:02:26;;;;;;;15.55;13.90;;;;;;;16.59;69.36;99861.63;4963080;28;20030;-93
2022/06/19 05:04:51;;;;;;;17.75;14.90;;;;;;;16.65;69.52;99863.16;4963006;28;20460;-91
2022/06/19 05:07:17;;;;;;;16.88;15.02;;;;;;;16.69;69.62;99854.09;4962956;28;20488;-92
2022/06/19 05:09:42;;;;;;;17.67;15.15;;;;;;;16.82;69.09;99849.84;4962840;28;20050;-92
2022/06/19 05:12:08;;;;;;;16.55;13.52;;;;;;;16.92;68.99;99857.81;4962906;28;20481;-91
2022/06/19 05:14:34;;;;;;;17.05;14.65;;;;;;;17.03;68.83;99866.59;4979176;28;20108;-92
2022/06/19 05:16:59;;;;;;;16.13;13.93;;;;;;;17.07;68.12;99837.69;4963417;28;20030;-92
2022/06/19 05:19:25;;;;;;;18.70;15.43;;;;;;;17.24;67.62;99855.34;4962830;28;20026;-92
2022/06/19 05:21:50;;;;;;;14.70;13.15;;;;;;;17.29;67.80;99847.09;4962652;28;20026;-91
2022/06/19 05:24:16;;;;;;;15.38;12.70;;;;;;;17.42;67.18;99843.56;4962848;28;20033;-92
2022/06/19 05:26:41;;;;;;;18.50;12.73;;;;;;;17.49;67.34;99849.44;4962880;28;20022;-92
2022/06/19 05:29:07;;;;;;;14.07;12.07;;;;;;;17.60;66.94;99857.38;4962282;28;20018;-92
2022/06/19 05:31:34;;;;;;;12.75;11.45;;;;;;;17.49;66.90;99838.53;4961813;28;20022;-92
2022/06/19 05:33:59;;;;;;;16.73;10.57;;;;;;;17.67;66.14;99849.63;4962255;28;20033;-92
2022/06/19 05:36:29;;;;;;;11.40;10.30;;;;;;;17.75;66.47;99843.47;4977679;28;20031;-91
2022/06/19 05:38:55;;;;;;;14.35;10.55;;;;;;;17.89;66.51;99857.91;4962848;28;20551;-92
2022/06/19 05:41:20;;;;;;;23.73;12.20;;;;;;;18.11;65.70;99865.31;4978181;28;20027;-94
2022/06/19 05:43:48;;;;;;;12.65;10.88;;;;;;;18.07;65.92;99858.06;4963037;28;20109;-92
2022/06/19 05:46:15;;;;;;;12.82;11.10;;;;;;;18.13;65.67;99845.94;4961610;28;20220;-94
2022/06/19 05:48:40;;;;;;;13.68;11.10;;;;;;;18.33;65.54;99861.81;4961982;28;20026;-94
2022/06/19 05:51:10;;;;;;;12.65;11.38;;;;;;;18.48;64.91;99862.56;4961874;28;20033;-93
2022/06/19 05:53:38;;;;;;;13.15;10.90;;;;;;;18.52;65.10;99852.66;4961698;28;20022;-94
2022/06/19 05:56:04;;;;;;;15.95;10.48;;;;;;;18.62;64.61;99855.16;4962334;28;20097;-93
2022/06/19 05:58:29;;;;;;;12.25;9.98;;;;;;;18.76;64.61;99868.72;4961570;28;20046;-93
2022/06/19 06:00:55;;;;;;;11.27;9.65;;;;;;;18.95;64.35;99869.34;4961703;28;20054;-92
2022/06/19 06:03:25;;;;;;;13.10;9.18;;;;;;;18.97;64.30;99858.13;4961407;28;20468;-93
2022/06/19 06:05:50;;;;;;;10.68;8.25;;;;;;;19.00;63.53;99852.03;4961304;28;20030;-93
2022/06/19 06:08:16;;;;;;;9.07;7.47;;;;;;;19.23;63.23;99860.19;4961090;28;20046;-93
2022/06/19 06:10:42;;;;;;;7.70;6.93;;;;;;;19.43;61.89;99867.81;4961159;28;20026;-93
2022/06/19 06:13:07;;;;;;;9.30;6.82;;;;;;;19.38;62.03;99838.72;4961531;28;20022;-94
2022/06/19 06:15:33;;;;;;;5.90;4.25;;;;;;;19.72;60.45;99870.03;4977429;28;20062;-93
2022/06/19 06:17:59;;;;;;;5.05;4.18;;;;;;;19.73;59.56;99855.22;4962343;28;20480;-93
2022/06/19 06:20:25;;;;;;;5.03;4.25;;;;;;;19.85;59.32;99853.81;4962190;28;20033;-93
2022/06/19 06:22:51;;;;;;;4.68;3.83;;;;;;;19.95;59.24;99868.00;4962727;28;20022;-93
2022/06/19 06:25:16;;;;;;;5.65;3.90;;;;;;;19.97;59.33;99840.34;4964372;28;20053;-94
2022/06/19 06:27:42;;;;;;;6.05;3.50;;;;;;;20.27;58.30;99863.19;4962453;28;20031;-93
2022/06/19 06:30:08;;;;;;;4.63;4.18;;;;;;;20.27;57.60;99851.44;4961273;28;20026;-94
2022/06/19 06:32:33;;;;;;;6.30;5.18;;;;;;;20.27;58.13;99843.25;4961222;28;20049;-92
2022/06/19 06:34:58;;;;;;;7.57;4.07;;;;;;;20.45;58.71;99850.31;4961312;28;20477;-92
2022/06/19 06:37:25;;;;;;;5.80;3.88;;;;;;;20.56;57.76;99853.53;4961305;28;20030;-93
2022/06/19 06:39:50;;;;;;;4.20;3.65;;;;;;;20.59;57.51;99840.03;4977355;28;20504;-92
2022/06/19 06:42:16;;;;;;;6.22;3.83;;;;;;;20.78;56.72;99847.09;4961484;28;20030;-95
2022/06/19 06:45:14;;;;;;;4.50;3.53;;;;;;;20.88;56.42;99840.50;4972678;28;20022;-95
2022/06/19 06:58:09;;;;;;;5.40;3.55;;;;;;;21.50;54.03;99839.94;5252733;23;20069;-95
2022/06/19 07:00:50;;;;;;;10.73;3.60;;;;;;;21.55;54.05;99834.28;5090980;23;20100;-88
2022/06/19 07:03:16;;;;;;;6.53;3.72;;;;;;;21.67;52.88;99827.28;4979845;28;20053;-92
2022/06/19 07:05:42;;;;;;;10.32;4.40;;;;;;;21.85;53.04;99839.75;4964370;28;20087;-92
2022/06/19 07:08:11;;;;;;;7.78;4.03;;;;;;;21.92;52.38;99828.25;4980456;28;20049;-92
2022/06/19 07:10:38;;;;;;;5.82;3.50;;;;;;;21.97;50.84;99834.31;4980672;28;20046;-93
2022/06/19 07:13:05;;;;;;;10.07;3.80;;;;;;;22.07;51.28;99838.63;4964657;28;20022;-91
2022/06/19 07:15:30;;;;;;;4.88;3.38;;;;;;;22.17;51.15;99829.19;4965011;28;20073;-92
2022/06/19 07:17:56;;;;;;;6.85;3.55;;;;;;;22.34;49.98;99828.28;4963935;28;20033;-93
2022/06/19 07:20:22;;;;;;;12.75;3.53;;;;;;;22.30;50.12;99832.81;4964473;28;20057;-93
2022/06/19 07:22:47;;;;;;;5.05;3.40;;;;;;;22.43;50.24;99825.44;4980701;28;20030;-92
2022/06/19 07:25:17;;;;;;;5.20;3.40;;;;;;;22.54;49.50;99819.22;4964604;28;20033;-92
2022/06/19 07:27:42;;;;;;;5.22;3.00;;;;;;;22.63;48.76;99824.59;4963845;28;20022;-93
2022/06/19 07:30:18;;;;;;;6.70;3.50;;;;;;;22.78;48.10;99839.63;4980738;28;20181;-92
2022/06/19 07:32:44;;;;;;;4.65;2.95;;;;;;;22.65;47.67;99816.84;4965313;28;20026;-92
2022/06/19 07:35:09;;;;;;;5.13;2.60;;;;;;;22.83;45.06;99819.38;4964317;28;20034;-91
2022/06/19 07:37:35;;;;;;;4.47;2.20;;;;;;;22.86;43.41;99825.00;4964414;28;20029;-92
2022/06/19 07:40:02;;;;;;;4.35;2.08;;;;;;;22.93;44.75;99825.28;4980243;28;20036;-93
2022/06/19 07:42:29;;;;;;;4.30;2.10;;;;;;;22.99;44.05;99810.19;4995469;28;20132;-91
2022/06/19 07:44:55;;;;;;;6.07;2.00;;;;;;;22.90;43.35;99811.41;4965143;28;20087;-91
2022/06/19 07:50:15;;;;;;;4.50;1.88;;;;;;;23.13;42.30;99840.06;4999788;28;20056;-93
2022/06/19 07:52:42;;;;;;;4.60;1.77;;;;;;;23.15;41.66;99828.75;4981497;28;20053;-92
2022/06/19 07:55:09;;;;;;;5.03;3.40;;;;;;;23.14;42.67;99830.72;4963397;28;20033;-91
2022/06/19 07:57:35;;;;;;;4.97;2.10;;;;;;;23.29;42.93;99828.44;4963800;28;20515;-92
2022/06/19 08:00:00;;;;;;;4.25;2.20;;;;;;;23.35;42.75;99827.84;4960499;28;20050;-91
2022/06/19 08:02:26;;;;;;;2.80;2.08;;;;;;;23.37;42.84;99830.28;4960611;28;20424;-92
2022/06/19 08:04:51;;;;;;;3.20;2.10;;;;;;;23.34;42.28;99814.44;4959632;28;20030;-92
2022/06/19 08:07:17;;;;;;;3.50;2.17;;;;;;;23.34;42.59;99808.97;4977363;28;20055;-92
2022/06/19 08:09:48;;;;;;;4.03;1.90;;;;;;;23.43;42.19;99828.91;4976268;28;20042;-92
2022/06/19 08:12:13;;;;;;;2.47;1.92;;;;;;;23.39;42.34;99815.03;4977694;28;20035;-92
2022/06/19 08:14:39;;;;;;;3.67;2.00;;;;;;;23.48;42.57;99820.41;4960914;28;20096;-92
2022/06/19 08:17:05;;;;;;;5.22;2.20;;;;;;;23.38;41.57;99813.41;4979338;28;20022;-92
2022/06/19 08:19:34;;;;;;;2.70;2.00;;;;;;;23.58;42.36;99816.41;4980785;28;20480;-88
2022/06/19 08:22:00;;;;;;;2.40;1.85;;;;;;;23.81;41.85;99827.75;4980155;28;20029;-93
2022/06/19 08:24:26;;;;;;;3.10;2.08;;;;;;;23.73;41.65;99810.19;4965135;28;20022;-94
2022/06/19 08:26:57;;;;;;;3.25;1.80;;;;;;;23.90;41.26;99824.84;4980273;28;20041;-92
2022/06/19 08:29:25;;;;;;;3.28;1.90;;;;;;;23.90;39.94;99811.91;4966050;28;20469;-93
2022/06/19 08:31:51;;;;;;;3.47;2.20;;;;;;;23.98;40.24;99808.22;4979561;28;20030;-94
2022/06/19 08:34:16;;;;;;;5.72;2.33;;;;;;;24.10;41.19;99812.09;4964698;28;20037;-94
2022/06/19 08:36:42;;;;;;;4.25;2.30;;;;;;;24.19;39.96;99809.97;4963855;28;20053;-92
2022/06/19 08:39:11;;;;;;;4.53;2.30;;;;;;;24.27;39.84;99813.75;4963471;28;20081;-92
2022/06/19 08:41:51;;;;;;;3.08;2.40;;;;;;;24.44;40.83;99812.66;4980281;28;20022;-92
2022/06/19 08:44:23;;;;;;;5.43;1.90;;;;;;;24.51;39.33;99818.38;4996440;28;20026;-93
2022/06/19 08:47:16;;;;;;;4.32;2.17;;;;;;;24.47;39.14;99807.25;4996312;28;20037;-92
2022/06/19 08:49:54;;;;;;;2.40;1.90;;;;;;;24.69;37.61;99819.66;4995785;28;20018;-93
2022/06/19 08:52:30;;;;;;;4.95;1.90;;;;;;;24.56;37.89;99791.38;4980046;28;20424;-92
2022/06/19 08:54:55;;;;;;;2.65;1.65;;;;;;;24.86;35.40;99815.78;4980184;28;20026;-93
2022/06/19 08:57:29;;;;;;;3.40;1.60;;;;;;;24.80;36.26;99808.94;4995751;28;20188;-96
2022/06/19 09:00:09;;;;;;;2.75;1.55;;;;;;;24.89;34.94;99806.00;4980161;28;20053;-94
2022/06/19 09:03:03;;;;;;;2.20;1.50;;;;;;;24.87;33.74;99786.28;4996678;28;20492;-93
2022/06/19 09:05:45;;;;;;;5.93;1.65;;;;;;;25.15;34.74;99772.41;4995511;28;20463;-93
2022/06/19 09:08:35;;;;;;;4.25;1.60;;;;;;;25.66;33.75;99793.69;4995591;28;20050;-93
2022/06/19 09:11:12;;;;;;;4.30;1.58;;;;;;;25.79;33.67;99784.94;4996007;28;20058;-95
2022/06/19 09:13:55;;;;;;;3.97;2.30;;;;;;;25.94;34.58;99786.09;4980266;28;20065;-94
2022/06/19 09:16:29;;;;;;;3.65;2.10;;;;;;;25.96;34.05;99777.41;4996604;28;20438;-91
2022/06/19 09:19:11;;;;;;;4.00;2.17;;;;;;;26.09;33.73;99786.38;4979353;28;20026;-95
2022/06/19 09:22:13;;;;;;;3.88;1.45;;;;;;;26.11;30.65;99784.06;4978352;28;20081;-93
2022/06/19 09:24:54;;;;;;;4.35;1.38;;;;;;;25.92;31.94;99790.34;4994695;28;20098;-94
2022/06/19 09:27:23;;;;;;;2.30;1.50;;;;;;;25.44;32.80;99784.94;4994057;28;20461;-93
2022/06/19 09:29:54;;;;;;;3.65;1.60;;;;;;;25.24;33.52;99783.28;4963088;28;20093;-92
2022/06/19 09:32:25;;;;;;;5.95;1.73;;;;;;;25.27;33.88;99786.09;4996085;28;20033;-93
2022/06/19 09:35:00;;;;;;;3.55;1.60;;;;;;;25.25;34.02;99795.91;4996540;28;20130;-94
2022/06/19 09:37:31;;;;;;;4.72;1.70;;;;;;;25.02;34.61;99791.78;4994757;28;20034;-94
2022/06/19 09:40:17;;;;;;;2.80;1.60;;;;;;;25.05;34.50;99792.22;4996681;28;20492;-95
2022/06/19 09:42:56;;;;;;;3.17;1.67;;;;;;;25.13;34.54;99775.53;4995381;28;20063;-95
2022/06/19 09:45:34;;;;;;;4.53;1.88;;;;;;;25.24;34.86;99758.47;4994464;28;20022;-94
2022/06/19 09:48:19;;;;;;;4.75;1.60;;;;;;;25.60;34.54;99766.38;4993995;28;20054;-94
2022/06/19 09:50:51;;;;;;;6.47;2.20;;;;;;;25.88;34.86;99765.41;4978658;28;20034;-94
2022/06/19 09:53:22;;;;;;;;;;;;;;;26.14;33.21;99762.03;4994771;28;20031;-92
2022/06/19 09:55:50;;;;;;;3.42;1.63;;;;;;;26.09;33.81;99743.00;4977719;28;19957;-93
2022/06/19 09:58:21;;;;;;;3.92;1.85;;;;;;;26.30;34.22;99747.34;4962195;28;20038;-92
2022/06/19 10:00:48;;;;;;;2.25;1.58;;;;;;;26.48;33.95;99750.44;4994550;28;20065;-92
2022/06/19 10:03:19;;;;;;;7.32;1.50;;;;;;;26.63;32.02;99751.53;4962425;28;20034;-93
2022/06/19 10:05:46;;;;;;;3.70;1.75;;;;;;;26.76;32.46;99736.38;4962983;28;20058;-94
2022/06/19 10:08:22;;;;;;;4.50;1.70;;;;;;;26.90;32.06;99761.47;4978595;28;20060;-94
2022/06/19 10:11:08;;;;;;;2.78;1.40;;;;;;;26.79;32.35;99746.66;4995130;28;20085;-92
2022/06/19 10:13:40;;;;;;;5.80;1.70;;;;;;;26.80;31.84;99742.75;4980560;28;20037;-93
2022/06/19 10:16:29;;;;;;;3.58;2.00;;;;;;;26.92;32.73;99755.59;4978710;28;20031;-92
2022/06/19 10:18:56;;;;;;;4.00;1.50;;;;;;;26.71;30.75;99744.94;4979781;28;20100;-92
2022/06/19 10:24:29;;;;;;;3.50;1.40;;;;;;;26.56;31.70;99757.69;4994182;28;20578;-93
2022/06/19 10:27:24;;;;;;;1.85;1.40;;;;;;;26.43;32.41;99768.09;4994111;28;20038;-92
2022/06/19 10:30:15;;;;;;;2.90;1.42;;;;;;;26.19;31.82;99749.91;4994324;28;20046;-95
2022/06/19 10:33:23;;;;;;;6.30;1.75;;;;;;;26.23;32.54;99756.31;4964442;28;20081;-92
2022/06/19 10:35:57;;;;;;;2.72;1.30;;;;;;;26.36;32.58;99756.94;4990608;28;20031;-92
2022/06/19 10:38:27;;;;;;;3.28;1.40;;;;;;;26.38;31.91;99738.84;4977824;28;20033;-93
2022/06/19 10:42:00;;;;;;;4.55;1.90;;;;;;;26.57;32.15;99757.34;4993881;28;20110;-92
2022/06/19 10:44:27;;;;;;;2.70;1.52;;;;;;;26.61;31.92;99740.84;4994896;28;20037;-92
2022/06/19 10:47:30;;;;;;;1.88;1.40;;;;;;;26.65;31.99;99733.41;4978721;28;20527;-92
2022/06/19 10:50:19;;;;;;;3.00;1.40;;;;;;;26.78;31.01;99742.31;4980357;28;20022;-91
2022/06/19 10:53:07;;;;;;;2.47;1.45;;;;;;;26.84;30.10;99717.94;4993966;28;20053;-93
2022/06/19 10:56:05;;;;;;;2.53;1.40;;;;;;;26.92;31.21;99712.16;4978827;28;20037;-92
2022/06/19 10:58:31;;;;;;;2.50;1.42;;;;;;;27.11;30.98;99707.72;4979841;28;20539;-93
2022/06/19 11:01:03;;;;;;;3.65;1.40;;;;;;;27.04;29.42;99713.09;4977198;28;20046;-94
2022/06/19 11:06:41;;;;;;;2.65;1.30;;;;;;;27.17;28.76;99695.16;4994602;28;20480;-92
2022/06/19 11:09:09;;;;;;;3.08;1.30;;;;;;;26.84;28.73;99704.13;4970255;28;20050;-94
2022/06/19 11:11:35;;;;;;;3.22;1.27;;;;;;;27.08;28.73;99706.50;4961812;28;20057;-93
2022/06/19 11:14:26;;;;;;;1.70;1.25;;;;;;;27.23;29.11;99704.75;4961550;28;20463;-95
2022/06/19 11:16:56;;;;;;;2.28;1.35;;;;;;;27.54;27.89;99714.66;4980305;28;20018;-93
2022/06/19 11:19:46;;;;;;;4.13;1.35;;;;;;;27.77;28.16;99703.50;4978348;28;20030;-93
2022/06/19 11:22:32;;;;;;;1.80;1.20;;;;;;;27.76;28.11;99721.25;4978473;28;20026;-94
2022/06/19 11:25:13;;;;;;;5.78;1.50;;;;;;;27.78;28.08;99707.84;4977977;28;20054;-94
2022/06/19 11:27:39;;;;;;;2.10;1.23;;;;;;;27.82;27.87;99700.38;4963948;28;20041;-93
2022/06/19 11:30:05;;;;;;;2.35;1.50;;;;;;;27.97;27.64;99700.56;4977211;28;20031;-93
2022/06/19 11:32:31;;;;;;;2.95;1.40;;;;;;;28.12;27.85;99696.00;4961338;28;20106;-94
2022/06/19 11:35:07;;;;;;;2.72;1.38;;;;;;;28.15;27.32;99689.72;4960801;28;20028;-94
2022/06/19 11:37:57;;;;;;;2.05;1.30;;;;;;;28.23;27.48;99696.91;4976905;28;20058;-93
2022/06/19 11:40:35;;;;;;;1.92;1.25;;;;;;;28.36;27.43;99687.13;4979508;28;20067;-94
2022/06/19 11:43:04;;;;;;;6.40;1.60;;;;;;;28.47;27.71;99687.22;4960812;28;20109;-93
2022/06/19 11:45:34;;;;;;;2.90;1.30;;;;;;;28.14;26.76;99686.16;4961199;28;20026;-93
2022/06/19 11:48:07;;;;;;;3.70;1.90;;;;;;;28.41;27.54;99700.66;4977549;28;20022;-93
2022/06/19 11:50:32;;;;;;;2.50;1.67;;;;;;;28.54;27.57;99697.63;4979001;28;20026;-93
2022/06/19 11:53:08;;;;;;;4.35;1.75;;;;;;;28.57;26.76;99683.00;4997530;28;20040;-94
2022/06/19 11:55:37;;;;;;;2.03;1.60;;;;;;;28.79;26.84;99690.31;4997515;28;20030;-93
2022/06/19 11:58:14;;;;;;;2.92;1.50;;;;;;;28.70;26.75;99673.25;4997285;28;20109;-93
2022/06/19 12:00:40;;;;;;;2.40;1.38;;;;;;;28.85;26.15;99689.97;4981414;28;20054;-93
2022/06/19 12:03:14;;;;;;;2.85;1.40;;;;;;;28.56;26.95;99659.25;4964197;28;20499;-93
2022/06/19 12:05:43;;;;;;;5.03;1.80;;;;;;;28.39;26.99;99660.69;4965076;28;20092;-93